createdAt,value
2019-04-03T00:00:19.402Z,0.10
2019-04-03T00:01:19.388Z,0.10
2019-04-03T00:02:19.384Z,0.20
2019-04-03T00:03:19.367Z,0.10
2019-04-03T00:04:19.359Z,0.20
2019-04-03T00:05:19.386Z,0.20
2019-04-03T00:06:19.330Z,0.10
2019-04-03T00:07:19.319Z,0.20
2019-04-03T00:08:19.308Z,0.10
2019-04-03T00:09:19.300Z,0.30
2019-04-03T00:10:19.329Z,0.20
2019-04-03T00:11:19.316Z,0.20
2019-04-03T00:12:19.269Z,0.20
2019-04-03T00:13:19.277Z,0.20
2019-04-03T00:14:19.240Z,0.10
2019-04-03T00:15:19.233Z,0.20
2019-04-03T00:16:19.222Z,0.10
2019-04-03T00:17:19.253Z,0.20
2019-04-03T00:18:29.007Z,0.20
2019-04-03T00:19:19.185Z,0.20
2019-04-03T00:20:19.197Z,0.20
2019-04-03T00:21:19.609Z,0.20
2019-04-03T00:22:21.122Z,0.10
2019-04-03T00:23:19.153Z,0.10
2019-04-03T00:24:19.137Z,0.20
2019-04-03T00:25:19.117Z,0.10
2019-04-03T00:26:20.471Z,0.20
2019-04-03T00:27:19.093Z,0.20
2019-04-03T00:28:19.087Z,0.20
2019-04-03T00:29:19.072Z,0.20
2019-04-03T00:30:19.063Z,0.30
2019-04-03T00:31:19.053Z,0.20
2019-04-03T00:32:19.046Z,0.10
2019-04-03T00:33:19.034Z,0.20
2019-04-03T00:34:19.021Z,0.30
2019-04-03T00:35:19.044Z,0.30
2019-04-03T00:36:19.040Z,0.30
2019-04-03T00:37:18.982Z,0.20
2019-04-03T00:38:18.977Z,0.20
2019-04-03T00:39:18.962Z,0.30
2019-04-03T00:40:18.951Z,0.20
2019-04-03T00:41:18.953Z,0.20
2019-04-03T00:42:18.971Z,0.20
2019-04-03T00:43:18.916Z,0.40
2019-04-03T00:44:18.903Z,0.20
2019-04-03T00:45:18.895Z,0.20
2019-04-03T00:46:18.888Z,0.20
2019-04-03T00:47:18.871Z,0.20
2019-04-03T00:48:18.901Z,0.20
2019-04-03T00:49:28.844Z,0.20
2019-04-03T00:50:18.870Z,0.20
2019-04-03T00:51:18.829Z,0.20
2019-04-03T00:52:18.921Z,0.20
2019-04-03T00:53:18.802Z,0.20
2019-04-03T00:54:18.815Z,0.20
2019-04-03T00:55:18.782Z,0.20
2019-04-03T00:56:18.779Z,0.20
2019-04-03T00:57:18.765Z,0.20
2019-04-03T00:58:18.822Z,0.20
2019-04-03T00:59:18.756Z,0.20
2019-04-03T01:00:18.741Z,0.30
2019-04-03T01:01:18.732Z,0.30
2019-04-03T01:02:18.702Z,0.30
2019-04-03T01:03:18.689Z,0.20
2019-04-03T01:04:18.794Z,0.20
2019-04-03T01:05:18.685Z,0.20
2019-04-03T01:06:18.663Z,0.20
2019-04-03T01:07:18.645Z,0.20
2019-04-03T01:08:18.632Z,0.10
2019-04-03T01:09:18.627Z,0.10
2019-04-03T01:10:18.648Z,0.30
2019-04-03T01:11:18.605Z,0.20
2019-04-03T01:12:18.589Z,0.20
2019-04-03T01:13:18.581Z,0.20
2019-04-03T01:14:18.567Z,0.20
2019-04-03T01:15:18.557Z,0.20
2019-04-03T01:16:18.614Z,0.20
2019-04-03T01:17:18.531Z,0.20
2019-04-03T01:18:18.523Z,0.30
2019-04-03T01:19:18.508Z,0.20
2019-04-03T01:20:31.724Z,0.20
2019-04-03T01:21:18.487Z,0.20
2019-04-03T01:22:18.488Z,0.10
2019-04-03T01:23:18.472Z,0.20
2019-04-03T01:24:18.459Z,0.30
2019-04-03T01:25:18.450Z,0.20
2019-04-03T01:26:18.432Z,0.30
2019-04-03T01:27:18.455Z,0.20
2019-04-03T01:28:18.417Z,0.20
2019-04-03T01:29:18.401Z,0.20
2019-04-03T01:30:18.391Z,0.20
2019-04-03T01:31:18.382Z,0.20
2019-04-03T01:32:18.371Z,0.20
2019-04-03T01:33:18.363Z,0.20
2019-04-03T01:34:18.349Z,0.20
2019-04-03T01:35:18.335Z,0.20
2019-04-03T01:36:18.326Z,0.20
2019-04-03T01:37:19.287Z,0.30
2019-04-03T01:38:19.548Z,0.20
2019-04-03T01:39:18.994Z,0.20
2019-04-03T01:40:20.159Z,0.30
2019-04-03T01:41:18.828Z,0.20
2019-04-03T01:42:18.252Z,0.20
2019-04-03T01:43:18.246Z,0.20
2019-04-03T01:44:18.239Z,0.10
2019-04-03T01:45:18.222Z,0.20
2019-04-03T01:46:18.215Z,0.20
2019-04-03T01:47:18.199Z,0.10
2019-04-03T01:48:18.311Z,0.20
2019-04-03T01:49:18.181Z,0.20
2019-04-03T01:50:18.167Z,0.20
2019-04-03T01:51:29.933Z,0.30
2019-04-03T01:52:18.152Z,0.30
2019-04-03T01:53:18.136Z,0.20
2019-04-03T01:54:18.119Z,0.30
2019-04-03T01:55:18.112Z,0.20
2019-04-03T01:56:18.212Z,0.30
2019-04-03T01:57:18.256Z,0.20
2019-04-03T01:58:18.097Z,0.20
2019-04-03T01:59:18.065Z,0.20
2019-04-03T02:00:18.131Z,0.20
2019-04-03T02:01:18.043Z,0.20
2019-04-03T02:02:18.030Z,0.20
2019-04-03T02:03:18.035Z,0.20
2019-04-03T02:04:18.006Z,0.20
2019-04-03T02:05:17.996Z,0.20
2019-04-03T02:06:17.986Z,0.20
2019-04-03T02:07:17.977Z,0.20
2019-04-03T02:08:18.122Z,0.30
2019-04-03T02:09:17.965Z,0.20
2019-04-03T02:10:18.322Z,0.30
2019-04-03T02:11:18.535Z,0.20
2019-04-03T02:12:19.672Z,0.20
2019-04-03T02:13:18.213Z,0.10
2019-04-03T02:14:17.941Z,0.20
2019-04-03T02:15:17.889Z,0.20
2019-04-03T02:16:17.871Z,0.30
2019-04-03T02:17:18.026Z,0.20
2019-04-03T02:18:17.850Z,0.30
2019-04-03T02:19:17.842Z,0.20
2019-04-03T02:20:17.853Z,0.30
2019-04-03T02:21:17.825Z,0.20
2019-04-03T02:22:29.525Z,0.30
2019-04-03T02:23:17.798Z,0.20
2019-04-03T02:24:17.942Z,0.20
2019-04-03T02:25:17.779Z,0.20
2019-04-03T02:26:17.775Z,0.20
2019-04-03T02:27:17.792Z,0.30
2019-04-03T02:28:17.743Z,0.30
2019-04-03T02:29:17.734Z,0.20
2019-04-03T02:30:17.720Z,0.30
2019-04-03T02:31:19.226Z,0.30
2019-04-03T02:32:17.721Z,0.20
2019-04-03T02:33:17.698Z,0.20
2019-04-03T02:34:17.807Z,0.20
2019-04-03T02:35:17.786Z,0.20
2019-04-03T02:36:17.912Z,0.20
2019-04-03T02:37:17.992Z,0.20
2019-04-03T02:38:21.390Z,0.20
2019-04-03T02:39:17.622Z,0.20
2019-04-03T02:40:17.742Z,0.30
2019-04-03T02:41:17.731Z,0.20
2019-04-03T02:42:17.610Z,0.20
2019-04-03T02:43:17.603Z,0.20
2019-04-03T02:44:19.160Z,0.20
2019-04-03T02:45:17.680Z,0.20
2019-04-03T02:46:17.551Z,0.20
2019-04-03T02:47:17.578Z,0.30
2019-04-03T02:48:17.524Z,0.20
2019-04-03T02:49:17.514Z,0.20
2019-04-03T02:50:17.659Z,0.20
2019-04-03T02:51:19.769Z,0.10
2019-04-03T02:52:17.767Z,0.20
2019-04-03T02:53:30.524Z,0.20
2019-04-03T02:54:17.478Z,0.20
2019-04-03T02:55:17.468Z,0.20
2019-04-03T02:56:17.431Z,0.20
2019-04-03T02:57:18.364Z,0.20
2019-04-03T02:58:21.320Z,0.20
2019-04-03T02:59:18.406Z,0.20
2019-04-03T03:00:17.390Z,0.20
2019-04-03T03:01:17.512Z,0.20
2019-04-03T03:02:17.370Z,0.20
2019-04-03T03:03:18.455Z,0.30
2019-04-03T03:04:20.342Z,0.30
2019-04-03T03:05:17.330Z,0.20
2019-04-03T03:06:17.481Z,0.20
2019-04-03T03:07:17.674Z,0.20
2019-04-03T03:08:17.298Z,0.40
2019-04-03T03:09:17.298Z,0.50
2019-04-03T03:10:19.295Z,0.50
2019-04-03T03:11:17.265Z,0.80
2019-04-03T03:12:17.267Z,1.00
2019-04-03T03:13:17.251Z,0.50
2019-04-03T03:14:17.533Z,0.50
2019-04-03T03:15:17.250Z,0.50
2019-04-03T03:16:18.441Z,0.60
2019-04-03T03:17:17.209Z,0.60
2019-04-03T03:18:17.218Z,0.70
2019-04-03T03:19:17.291Z,0.50
2019-04-03T03:20:17.171Z,0.50
2019-04-03T03:21:17.165Z,0.50
2019-04-03T03:22:18.433Z,0.60
2019-04-03T03:23:17.420Z,0.50
2019-04-03T03:24:29.601Z,0.40
2019-04-03T03:25:17.228Z,0.40
2019-04-03T03:26:17.531Z,0.40
2019-04-03T03:27:17.100Z,0.30
2019-04-03T03:28:17.186Z,0.40
2019-04-03T03:29:20.075Z,0.40
2019-04-03T03:30:36.108Z,0.50
2019-04-03T03:31:18.958Z,0.30
2019-04-03T03:32:22.263Z,0.40
2019-04-03T03:33:30.016Z,0.30
2019-04-03T03:34:43.815Z,0.30
2019-04-03T03:35:27.222Z,0.30
2019-04-03T03:36:22.707Z,0.50
2019-04-03T03:37:18.097Z,0.30
2019-04-03T03:38:16.971Z,0.40
2019-04-03T03:39:16.963Z,0.20
2019-04-03T03:40:17.445Z,0.40
2019-04-03T03:41:22.091Z,0.30
2019-04-03T03:42:17.930Z,0.30
2019-04-03T03:43:16.927Z,0.20
2019-04-03T03:44:16.911Z,0.30
2019-04-03T03:45:19.489Z,0.30
2019-04-03T03:46:16.882Z,0.30
2019-04-03T03:47:17.112Z,0.20
2019-04-03T03:48:16.885Z,0.30
2019-04-03T03:49:17.941Z,0.20
2019-04-03T03:50:16.845Z,0.20
2019-04-03T03:51:16.836Z,0.30
2019-04-03T03:52:16.827Z,0.20
2019-04-03T03:53:16.814Z,0.20
2019-04-03T03:54:18.631Z,0.30
2019-04-03T03:55:27.504Z,0.20
2019-04-03T03:56:16.790Z,0.30
2019-04-03T03:57:16.768Z,0.20
2019-04-03T03:58:16.752Z,0.20
2019-04-03T03:59:18.317Z,0.20
2019-04-03T04:00:16.733Z,0.20
2019-04-03T04:01:16.719Z,0.20
2019-04-03T04:02:16.713Z,0.20
2019-04-03T04:03:16.711Z,0.20
2019-04-03T04:04:16.685Z,0.20
2019-04-03T04:05:20.408Z,0.20
2019-04-03T04:06:16.905Z,0.20
2019-04-03T04:07:16.921Z,0.20
2019-04-03T04:08:16.649Z,0.20
2019-04-03T04:09:18.438Z,0.30
2019-04-03T04:10:16.625Z,0.20
2019-04-03T04:11:16.647Z,0.40
2019-04-03T04:12:16.605Z,0.30
2019-04-03T04:13:16.609Z,0.30
2019-04-03T04:14:21.113Z,0.40
2019-04-03T04:15:17.780Z,0.20
2019-04-03T04:16:16.565Z,0.30
2019-04-03T04:17:18.141Z,0.20
2019-04-03T04:18:17.222Z,0.30
2019-04-03T04:19:16.789Z,0.40
2019-04-03T04:20:16.519Z,0.20
2019-04-03T04:21:16.598Z,0.20
2019-04-03T04:22:18.075Z,0.20
2019-04-03T04:23:16.579Z,0.30
2019-04-03T04:24:16.587Z,0.40
2019-04-03T04:25:16.457Z,0.30
2019-04-03T04:26:27.484Z,0.40
2019-04-03T04:27:16.641Z,0.30
2019-04-03T04:28:16.431Z,0.30
2019-04-03T04:29:16.412Z,0.20
2019-04-03T04:30:16.425Z,0.30
2019-04-03T04:31:16.391Z,0.20
2019-04-03T04:32:16.397Z,0.30
2019-04-03T04:33:16.970Z,0.20
2019-04-03T04:34:18.320Z,0.40
2019-04-03T04:35:16.379Z,0.50
2019-04-03T04:36:16.338Z,0.40
2019-04-03T04:37:16.325Z,0.40
2019-04-03T04:38:16.394Z,0.30
2019-04-03T04:39:16.314Z,0.40
2019-04-03T04:40:16.405Z,0.40
2019-04-03T04:41:16.280Z,0.40
2019-04-03T04:42:16.273Z,0.30
2019-04-03T04:43:16.263Z,0.50
2019-04-03T04:44:16.299Z,0.30
2019-04-03T04:45:16.243Z,0.40
2019-04-03T04:46:16.225Z,0.30
2019-04-03T04:47:16.223Z,0.40
2019-04-03T04:48:18.380Z,0.40
2019-04-03T04:49:16.199Z,0.40
2019-04-03T04:50:16.225Z,0.40
2019-04-03T04:51:16.171Z,0.40
2019-04-03T04:52:16.162Z,0.30
2019-04-03T04:53:16.152Z,0.30
2019-04-03T04:54:16.240Z,0.40
2019-04-03T04:55:16.132Z,0.40
2019-04-03T04:56:16.215Z,0.30
2019-04-03T04:57:26.609Z,0.50
2019-04-03T04:58:16.101Z,0.30
2019-04-03T04:59:16.088Z,0.30
2019-04-03T05:00:16.311Z,0.40
2019-04-03T05:01:18.044Z,0.40
2019-04-03T05:02:16.057Z,0.50
2019-04-03T05:03:16.041Z,0.40
2019-04-03T05:04:16.035Z,0.40
2019-04-03T05:05:16.124Z,0.70
2019-04-03T05:06:16.011Z,0.70
2019-04-03T05:07:17.070Z,0.40
2019-04-03T05:08:15.991Z,0.50
2019-04-03T05:09:15.980Z,0.50
2019-04-03T05:10:17.564Z,0.40
2019-04-03T05:11:15.957Z,0.50
2019-04-03T05:12:15.990Z,0.40
2019-04-03T05:13:16.669Z,0.40
2019-04-03T05:14:17.993Z,0.30
2019-04-03T05:15:15.920Z,0.50
2019-04-03T05:16:16.048Z,0.40
2019-04-03T05:17:15.888Z,0.40
2019-04-03T05:18:15.887Z,0.50
2019-04-03T05:19:18.862Z,0.40
2019-04-03T05:20:15.855Z,0.30
2019-04-03T05:21:15.845Z,0.40
2019-04-03T05:22:15.838Z,0.30
2019-04-03T05:23:15.854Z,0.30
2019-04-03T05:24:15.814Z,0.30
2019-04-03T05:25:15.800Z,0.50
2019-04-03T05:26:15.798Z,0.30
2019-04-03T05:27:15.852Z,0.50
2019-04-03T05:28:27.099Z,0.50
2019-04-03T05:29:15.754Z,0.40
2019-04-03T05:30:15.752Z,0.40
2019-04-03T05:31:15.728Z,0.20
2019-04-03T05:32:15.722Z,0.40
2019-04-03T05:33:15.711Z,0.50
2019-04-03T05:34:15.715Z,0.30
2019-04-03T05:35:15.955Z,0.40
2019-04-03T05:36:17.721Z,0.40
2019-04-03T05:37:15.664Z,0.60
2019-04-03T05:38:15.657Z,0.40
2019-04-03T05:39:15.741Z,0.50
2019-04-03T05:40:15.703Z,0.40
2019-04-03T05:41:15.629Z,0.60
2019-04-03T05:42:15.606Z,0.50
2019-04-03T05:43:15.599Z,0.50
2019-04-03T05:44:15.585Z,0.40
2019-04-03T05:45:15.779Z,0.40
2019-04-03T05:46:15.857Z,0.30
2019-04-03T05:47:15.549Z,0.50
2019-04-03T05:48:17.789Z,0.50
2019-04-03T05:49:15.525Z,0.40
2019-04-03T05:50:15.706Z,0.60
2019-04-03T05:51:15.543Z,0.40
2019-04-03T05:52:15.495Z,0.40
2019-04-03T05:53:15.575Z,0.50
2019-04-03T05:54:15.478Z,0.40
2019-04-03T05:55:15.588Z,0.60
2019-04-03T05:56:15.449Z,0.50
2019-04-03T05:57:15.478Z,0.50
2019-04-03T05:58:16.497Z,0.40
2019-04-03T05:59:27.584Z,0.50
2019-04-03T06:00:15.403Z,0.40
2019-04-03T06:01:15.405Z,0.40
2019-04-03T06:02:18.576Z,0.50
2019-04-03T06:03:15.382Z,0.60
2019-04-03T06:04:15.355Z,0.50
2019-04-03T06:05:18.453Z,0.50
2019-04-03T06:06:15.579Z,0.50
2019-04-03T06:07:17.481Z,0.40
2019-04-03T06:08:15.316Z,0.40
2019-04-03T06:09:15.304Z,0.50
2019-04-03T06:10:15.295Z,0.50
2019-04-03T06:11:15.514Z,0.60
2019-04-03T06:12:18.261Z,0.50
2019-04-03T06:13:17.078Z,0.50
2019-04-03T06:14:15.252Z,0.50
2019-04-03T06:15:15.259Z,0.50
2019-04-03T06:16:16.800Z,0.30
2019-04-03T06:17:15.211Z,0.60
2019-04-03T06:18:17.549Z,0.50
2019-04-03T06:19:15.198Z,0.40
2019-04-03T06:20:15.206Z,0.70
2019-04-03T06:21:15.985Z,0.50
2019-04-03T06:22:17.072Z,0.60
2019-04-03T06:23:16.092Z,0.70
2019-04-03T06:24:17.688Z,0.60
2019-04-03T06:25:15.299Z,0.60
2019-04-03T06:26:15.430Z,0.60
2019-04-03T06:27:15.109Z,0.80
2019-04-03T06:28:15.095Z,0.70
2019-04-03T06:29:15.151Z,0.60
2019-04-03T06:30:25.911Z,0.80
2019-04-03T06:31:15.056Z,0.60
2019-04-03T06:32:15.049Z,0.70
2019-04-03T06:33:15.039Z,0.80
2019-04-03T06:34:15.090Z,0.50
2019-04-03T06:35:15.120Z,0.50
2019-04-03T06:36:16.877Z,0.70
2019-04-03T06:37:14.991Z,0.60
2019-04-03T06:38:14.984Z,0.50
2019-04-03T06:39:14.974Z,0.70
2019-04-03T06:40:14.965Z,0.60
2019-04-03T06:41:15.031Z,0.50
2019-04-03T06:42:14.942Z,0.60
2019-04-03T06:43:16.492Z,0.50
2019-04-03T06:44:15.161Z,0.70
2019-04-03T06:45:16.102Z,0.60
2019-04-03T06:46:14.940Z,0.50
2019-04-03T06:47:15.002Z,0.50
2019-04-03T06:48:14.878Z,0.50
2019-04-03T06:49:14.858Z,0.60
2019-04-03T06:50:17.392Z,0.50
2019-04-03T06:51:16.730Z,0.50
2019-04-03T06:52:14.840Z,0.70
2019-04-03T06:53:15.003Z,0.70
2019-04-03T06:54:14.801Z,0.50
2019-04-03T06:55:14.912Z,0.60
2019-04-03T06:56:14.779Z,0.50
2019-04-03T06:57:14.811Z,0.50
2019-04-03T06:58:14.851Z,0.50
2019-04-03T06:59:16.508Z,0.50
2019-04-03T07:00:14.738Z,0.50
2019-04-03T07:01:26.228Z,0.50
2019-04-03T07:02:14.719Z,0.50
2019-04-03T07:03:14.718Z,0.50
2019-04-03T07:04:14.691Z,0.40
2019-04-03T07:05:14.679Z,0.50
2019-04-03T07:06:14.758Z,0.50
2019-04-03T07:07:16.016Z,0.40
2019-04-03T07:08:27.910Z,0.50
2019-04-03T07:09:22.377Z,0.60
2019-04-03T07:10:25.072Z,0.50
2019-04-03T07:11:23.325Z,0.60
2019-04-03T07:12:16.311Z,0.60
2019-04-03T07:13:15.293Z,0.40
2019-04-03T07:14:14.737Z,0.30
2019-04-03T07:15:14.574Z,0.40
2019-04-03T07:16:14.561Z,1.00
2019-04-03T07:17:14.557Z,0.60
2019-04-03T07:18:14.769Z,0.70
2019-04-03T07:19:14.559Z,0.70
2019-04-03T07:20:18.777Z,0.60
2019-04-03T07:21:15.507Z,0.50
2019-04-03T07:22:14.492Z,0.40
2019-04-03T07:23:14.483Z,0.50
2019-04-03T07:24:14.476Z,0.50
2019-04-03T07:25:14.722Z,0.60
2019-04-03T07:26:14.447Z,0.70
2019-04-03T07:27:15.215Z,0.40
2019-04-03T07:28:14.424Z,0.60
2019-04-03T07:29:16.704Z,0.80
2019-04-03T07:30:16.801Z,0.80
2019-04-03T07:31:14.398Z,0.50
2019-04-03T07:32:25.847Z,0.60
2019-04-03T07:33:14.377Z,0.50
2019-04-03T07:34:14.367Z,0.80
2019-04-03T07:35:14.353Z,0.60
2019-04-03T07:36:14.416Z,0.50
2019-04-03T07:37:15.496Z,0.60
2019-04-03T07:38:14.315Z,0.50
2019-04-03T07:39:14.304Z,0.50
2019-04-03T07:40:14.454Z,0.40
2019-04-03T07:41:14.285Z,0.40
2019-04-03T07:42:14.283Z,0.50
2019-04-03T07:43:14.268Z,0.40
2019-04-03T07:44:14.324Z,0.60
2019-04-03T07:45:14.241Z,0.60
2019-04-03T07:46:14.232Z,0.50
2019-04-03T07:47:14.234Z,0.50
2019-04-03T07:48:14.222Z,0.60
2019-04-03T07:49:14.683Z,0.50
2019-04-03T07:50:14.369Z,0.50
2019-04-03T07:51:14.175Z,0.50
2019-04-03T07:52:16.271Z,0.60
2019-04-03T07:53:14.525Z,0.60
2019-04-03T07:54:14.142Z,0.50
2019-04-03T07:55:14.363Z,0.50
2019-04-03T07:56:14.343Z,0.60
2019-04-03T07:57:16.258Z,0.60
2019-04-03T07:58:14.300Z,0.50
2019-04-03T07:59:14.085Z,0.50
2019-04-03T08:00:14.075Z,0.60
2019-04-03T08:01:14.532Z,0.50
2019-04-03T08:02:14.096Z,0.50
2019-04-03T08:03:24.780Z,0.60
2019-04-03T08:04:16.134Z,0.50
2019-04-03T08:05:14.200Z,0.50
2019-04-03T08:06:14.012Z,0.60
2019-04-03T08:07:13.999Z,0.50
2019-04-03T08:08:14.005Z,0.40
2019-04-03T08:09:13.979Z,0.70
2019-04-03T08:10:14.031Z,0.60
2019-04-03T08:11:14.973Z,0.70
2019-04-03T08:12:13.940Z,0.70
2019-04-03T08:13:13.932Z,0.70
2019-04-03T08:14:13.956Z,0.70
2019-04-03T08:15:13.979Z,0.60
2019-04-03T08:16:15.772Z,0.70
2019-04-03T08:17:13.887Z,0.80
2019-04-03T08:18:13.873Z,0.60
2019-04-03T08:19:14.147Z,0.80
2019-04-03T08:20:13.890Z,0.80
2019-04-03T08:21:13.844Z,0.90
2019-04-03T08:22:13.834Z,0.90
2019-04-03T08:23:13.819Z,0.70
2019-04-03T08:24:13.984Z,0.70
2019-04-03T08:25:14.092Z,0.80
2019-04-03T08:26:13.804Z,0.80
2019-04-03T08:27:13.771Z,0.80
2019-04-03T08:28:13.767Z,0.90
2019-04-03T08:29:13.762Z,0.80
2019-04-03T08:30:13.739Z,0.80
2019-04-03T08:31:13.765Z,0.70
2019-04-03T08:32:16.178Z,1.50
2019-04-03T08:33:17.067Z,0.80
2019-04-03T08:34:24.428Z,0.70
2019-04-03T08:35:20.419Z,0.80
2019-04-03T08:36:23.919Z,0.80
2019-04-03T08:37:14.792Z,0.80
2019-04-03T08:38:14.196Z,0.90
2019-04-03T08:39:15.815Z,0.70
2019-04-03T08:40:13.707Z,0.80
2019-04-03T08:41:13.652Z,0.90
2019-04-03T08:42:13.810Z,1.00
2019-04-03T08:43:13.601Z,1.40
2019-04-03T08:44:13.586Z,0.80
2019-04-03T08:45:13.714Z,0.70
2019-04-03T08:46:13.764Z,0.70
2019-04-03T08:47:14.216Z,0.90
2019-04-03T08:48:14.982Z,0.80
2019-04-03T08:49:13.532Z,0.90
2019-04-03T08:50:13.768Z,0.80
2019-04-03T08:51:13.511Z,0.80
2019-04-03T08:52:14.594Z,1.20
2019-04-03T08:53:13.498Z,0.90
2019-04-03T08:54:13.649Z,0.90
2019-04-03T08:55:14.596Z,0.90
2019-04-03T08:56:16.128Z,0.80
2019-04-03T08:57:13.629Z,0.80
2019-04-03T08:58:13.676Z,0.80
2019-04-03T08:59:13.895Z,1.00
2019-04-03T09:00:13.399Z,0.80
2019-04-03T09:01:13.655Z,0.90
2019-04-03T09:02:13.403Z,0.70
2019-04-03T09:03:14.654Z,1.30
2019-04-03T09:04:14.841Z,0.90
2019-04-03T09:05:24.588Z,0.90
2019-04-03T09:06:13.507Z,1.00
2019-04-03T09:07:13.326Z,0.90
2019-04-03T09:08:13.423Z,0.90
2019-04-03T09:09:13.301Z,1.10
2019-04-03T09:10:13.324Z,1.00
2019-04-03T09:11:13.281Z,1.20
2019-04-03T09:12:13.268Z,1.40
2019-04-03T09:13:17.717Z,1.00
2019-04-03T09:14:14.256Z,1.10
2019-04-03T09:15:13.503Z,1.00
2019-04-03T09:16:13.279Z,1.20
2019-04-03T09:17:13.354Z,1.10
2019-04-03T09:18:13.201Z,1.00
2019-04-03T09:19:13.190Z,1.10
2019-04-03T09:20:13.933Z,1.20
2019-04-03T09:21:15.105Z,1.10
2019-04-03T09:22:13.155Z,1.20
2019-04-03T09:23:13.139Z,1.20
2019-04-03T09:24:13.133Z,1.20
2019-04-03T09:25:13.866Z,1.10
2019-04-03T09:26:13.116Z,1.00
2019-04-03T09:27:13.103Z,1.10
2019-04-03T09:28:13.104Z,1.20
2019-04-03T09:29:13.764Z,1.20
2019-04-03T09:30:15.478Z,1.10
2019-04-03T09:31:13.049Z,1.20
2019-04-03T09:32:13.053Z,1.20
2019-04-03T09:33:13.416Z,1.20
2019-04-03T09:34:13.017Z,1.10
2019-04-03T09:35:13.003Z,1.40
2019-04-03T09:36:23.100Z,1.40
2019-04-03T09:37:12.987Z,1.20
2019-04-03T09:38:13.057Z,1.30
2019-04-03T09:39:14.496Z,1.30
2019-04-03T09:40:12.977Z,1.20
2019-04-03T09:41:13.079Z,1.20
2019-04-03T09:42:12.945Z,1.30
2019-04-03T09:43:12.920Z,1.30
2019-04-03T09:44:12.905Z,1.20
2019-04-03T09:45:12.906Z,1.30
2019-04-03T09:46:12.881Z,1.20
2019-04-03T09:47:12.880Z,1.20
2019-04-03T09:48:12.859Z,1.20
2019-04-03T09:49:13.094Z,1.30
2019-04-03T09:50:14.372Z,1.40
2019-04-03T09:51:12.905Z,1.40
2019-04-03T09:52:12.859Z,1.30
2019-04-03T09:53:12.801Z,1.40
2019-04-03T09:54:12.790Z,1.30
2019-04-03T09:55:13.115Z,1.20
2019-04-03T09:56:12.774Z,1.30
2019-04-03T09:57:12.761Z,1.20
2019-04-03T09:58:12.751Z,1.20
2019-04-03T09:59:15.248Z,1.20
2019-04-03T10:00:12.725Z,1.10
2019-04-03T10:01:15.700Z,1.70
2019-04-03T10:02:13.754Z,1.20
2019-04-03T10:03:12.790Z,1.20
2019-04-03T10:04:12.676Z,1.30
2019-04-03T10:05:12.670Z,1.10
2019-04-03T10:06:12.888Z,1.40
2019-04-03T10:07:23.041Z,1.40
2019-04-03T10:08:12.634Z,1.20
2019-04-03T10:09:12.851Z,1.10
2019-04-03T10:10:14.070Z,1.20
2019-04-03T10:11:14.934Z,1.00
2019-04-03T10:12:12.634Z,1.30
2019-04-03T10:13:12.573Z,1.20
2019-04-03T10:14:12.853Z,1.20
2019-04-03T10:15:12.937Z,1.30
2019-04-03T10:16:15.813Z,1.20
2019-04-03T10:17:12.536Z,1.10
2019-04-03T10:18:12.532Z,1.40
2019-04-03T10:19:14.038Z,1.20
2019-04-03T10:20:12.495Z,1.10
2019-04-03T10:21:12.538Z,1.20
2019-04-03T10:22:12.480Z,1.30
2019-04-03T10:23:12.618Z,1.10
2019-04-03T10:24:12.460Z,1.10
2019-04-03T10:25:12.589Z,1.20
2019-04-03T10:26:12.432Z,1.10
2019-04-03T10:27:12.612Z,1.20
2019-04-03T10:28:14.775Z,1.20
2019-04-03T10:29:12.444Z,1.10
2019-04-03T10:30:12.386Z,1.30
2019-04-03T10:31:12.709Z,1.20
2019-04-03T10:32:12.716Z,1.10
2019-04-03T10:33:12.347Z,1.10
2019-04-03T10:34:14.336Z,1.30
2019-04-03T10:35:12.373Z,1.10
2019-04-03T10:36:12.666Z,1.20
2019-04-03T10:37:14.733Z,1.10
2019-04-03T10:38:24.437Z,1.20
2019-04-03T10:39:12.476Z,1.10
2019-04-03T10:40:12.272Z,1.20
2019-04-03T10:41:12.298Z,1.20
2019-04-03T10:42:12.502Z,1.20
2019-04-03T10:43:12.241Z,1.30
2019-04-03T10:44:12.228Z,1.30
2019-04-03T10:45:12.514Z,1.50
2019-04-03T10:46:12.203Z,1.20
2019-04-03T10:47:12.757Z,1.10
2019-04-03T10:48:12.225Z,1.10
2019-04-03T10:49:12.164Z,1.50
2019-04-03T10:50:12.162Z,1.20
2019-04-03T10:51:12.142Z,1.10
2019-04-03T10:52:13.358Z,1.20
2019-04-03T10:53:12.206Z,1.20
2019-04-03T10:54:12.110Z,1.20
2019-04-03T10:55:12.347Z,1.10
2019-04-03T10:56:12.349Z,1.40
2019-04-03T10:57:12.076Z,1.20
2019-04-03T10:58:12.352Z,1.30
2019-04-03T10:59:13.771Z,1.10
2019-04-03T11:00:12.227Z,1.40
2019-04-03T11:01:12.223Z,1.20
2019-04-03T11:02:12.021Z,1.20
2019-04-03T11:03:12.009Z,1.00
2019-04-03T11:04:12.146Z,0.90
2019-04-03T11:05:12.042Z,1.20
2019-04-03T11:06:11.979Z,1.00
2019-04-03T11:07:12.312Z,1.10
2019-04-03T11:08:11.958Z,1.10
2019-04-03T11:09:23.064Z,1.30
2019-04-03T11:10:11.979Z,1.00
2019-04-03T11:11:11.921Z,1.00
2019-04-03T11:12:11.908Z,0.90
2019-04-03T11:13:12.196Z,0.90
2019-04-03T11:14:11.921Z,0.90
2019-04-03T11:15:12.716Z,0.90
2019-04-03T11:16:13.214Z,0.90
2019-04-03T11:17:12.040Z,0.80
2019-04-03T11:18:11.839Z,0.90
2019-04-03T11:19:11.831Z,1.00
2019-04-03T11:20:11.924Z,0.90
2019-04-03T11:21:13.074Z,0.80
2019-04-03T11:22:11.794Z,0.80
2019-04-03T11:23:11.782Z,0.80
2019-04-03T11:24:11.773Z,0.90
2019-04-03T11:25:15.207Z,0.90
2019-04-03T11:26:11.819Z,1.00
2019-04-03T11:27:11.742Z,1.00
2019-04-03T11:28:11.747Z,0.90
2019-04-03T11:29:11.736Z,0.90
2019-04-03T11:30:14.066Z,1.00
2019-04-03T11:31:24.938Z,0.90
2019-04-03T11:32:12.954Z,0.80
2019-04-03T11:33:13.481Z,1.00
2019-04-03T11:34:11.667Z,0.80
2019-04-03T11:35:11.749Z,0.90
2019-04-03T11:36:11.636Z,0.90
2019-04-03T11:37:11.724Z,0.90
2019-04-03T11:38:15.482Z,0.90
2019-04-03T11:39:15.608Z,0.70
2019-04-03T11:40:24.667Z,1.00
2019-04-03T11:41:16.415Z,1.00
2019-04-03T11:42:22.754Z,0.90
2019-04-03T11:43:12.560Z,0.80
2019-04-03T11:44:11.682Z,0.90
2019-04-03T11:45:11.539Z,0.80
2019-04-03T11:46:11.666Z,0.80
2019-04-03T11:47:13.059Z,0.90
2019-04-03T11:48:11.543Z,0.60
2019-04-03T11:49:11.498Z,0.80
2019-04-03T11:50:11.480Z,0.70
2019-04-03T11:51:11.476Z,0.90
2019-04-03T11:52:11.462Z,0.70
2019-04-03T11:53:11.542Z,0.70
2019-04-03T11:54:11.746Z,0.90
2019-04-03T11:55:11.700Z,0.80
2019-04-03T11:56:13.293Z,0.60
2019-04-03T11:57:11.403Z,0.80
2019-04-03T11:58:11.446Z,0.80
2019-04-03T11:59:11.782Z,0.60
2019-04-03T12:00:11.372Z,0.80
2019-04-03T12:01:11.355Z,0.70
2019-04-03T12:02:11.580Z,0.70
2019-04-03T12:03:12.096Z,0.60
2019-04-03T12:04:12.799Z,0.70
2019-04-03T12:05:11.358Z,0.70
2019-04-03T12:06:11.301Z,0.70
2019-04-03T12:07:11.294Z,0.80
2019-04-03T12:08:12.577Z,0.80
2019-04-03T12:09:11.579Z,0.80
2019-04-03T12:10:11.359Z,0.90
2019-04-03T12:11:22.114Z,0.70
2019-04-03T12:12:11.279Z,0.80
2019-04-03T12:13:13.649Z,0.90
2019-04-03T12:14:11.216Z,0.70
2019-04-03T12:15:11.201Z,0.70
2019-04-03T12:16:11.232Z,0.80
2019-04-03T12:17:11.183Z,0.80
2019-04-03T12:18:11.165Z,0.80
2019-04-03T12:19:11.396Z,0.70
2019-04-03T12:20:11.145Z,0.80
2019-04-03T12:21:13.675Z,0.70
2019-04-03T12:22:11.127Z,0.70
2019-04-03T12:23:11.387Z,0.90
2019-04-03T12:24:11.103Z,0.60
2019-04-03T12:25:11.083Z,0.80
2019-04-03T12:26:11.396Z,0.70
2019-04-03T12:27:13.256Z,0.80
2019-04-03T12:28:11.054Z,0.60
2019-04-03T12:29:11.268Z,0.70
2019-04-03T12:30:11.032Z,0.60
2019-04-03T12:31:11.025Z,0.80
2019-04-03T12:32:11.004Z,0.70
2019-04-03T12:33:11.185Z,0.70
2019-04-03T12:34:10.982Z,0.60
2019-04-03T12:35:11.719Z,0.70
2019-04-03T12:36:13.251Z,0.70
2019-04-03T12:37:10.948Z,0.70
2019-04-03T12:38:11.372Z,0.60
2019-04-03T12:39:10.934Z,0.80
2019-04-03T12:40:10.914Z,0.70
2019-04-03T12:41:10.915Z,0.70
2019-04-03T12:42:26.705Z,0.80
2019-04-03T12:43:10.885Z,0.70
2019-04-03T12:44:11.192Z,0.70
2019-04-03T12:45:10.859Z,0.80
2019-04-03T12:46:10.887Z,0.80
2019-04-03T12:47:13.453Z,0.70
2019-04-03T12:48:10.828Z,0.80
2019-04-03T12:49:10.820Z,0.60
2019-04-03T12:50:12.943Z,0.70
2019-04-03T12:51:11.065Z,0.80
2019-04-03T12:52:10.908Z,0.70
2019-04-03T12:53:10.771Z,0.70
2019-04-03T12:54:12.834Z,0.80
2019-04-03T12:55:10.768Z,0.70
2019-04-03T12:56:10.809Z,0.90
2019-04-03T12:57:11.083Z,0.80
2019-04-03T12:58:10.916Z,0.70
2019-04-03T12:59:10.704Z,0.70
2019-04-03T13:00:12.567Z,0.80
2019-04-03T13:01:11.634Z,0.60
2019-04-03T13:02:10.710Z,0.80
2019-04-03T13:03:10.654Z,0.70
2019-04-03T13:04:10.648Z,0.90
2019-04-03T13:05:11.053Z,0.70
2019-04-03T13:06:10.951Z,0.80
2019-04-03T13:07:13.416Z,0.70
2019-04-03T13:08:10.988Z,0.90
2019-04-03T13:09:10.764Z,0.90
2019-04-03T13:10:10.968Z,0.70
2019-04-03T13:11:10.926Z,0.80
2019-04-03T13:12:10.723Z,0.80
2019-04-03T13:13:20.689Z,0.70
2019-04-03T13:14:22.042Z,0.80
2019-04-03T13:15:11.564Z,0.90
2019-04-03T13:16:11.094Z,0.80
2019-04-03T13:17:11.238Z,0.80
2019-04-03T13:18:10.486Z,0.90